Dunkirk, OH (45836)

5:35 AM EDT on October 24, 2014 (GMT -0400)
KOHARLIN2 | Change Station
CLOSE
Current Station
Personal Weather Station
Location: ARLINGTON, OH
Elevation: 850 ft
Nearby Weather Stations

Elev 850 ft 40.87 °N, 83.66 °W | Updated 1 second ago

Partly Cloudy
Partly Cloudy
40.2 °F
Feels Like 40 °F
N
2.0
Wind Variable Wind from SSE
Gusts 2.0 mph

Today
High -- | Low -- °F
--% Chance of Precip.
Yesterday
High -- | Low -- °F
Precip. -- in
7:55 AM 6:41 PM
New Moon, 0% visible
Pressure 30.09 in
Visibility 7.0 miles
Clouds Clear
Windchill 40 °F
Dew Point 38 °F
Humidity 92%
Rainfall 0.00 in
Snow Depth Not available.
UV 0 out of 12
Pollen .40 out of 12
Air Quality Not available.
Flu Activity Sporadic
METAR KFDY 240853Z AUTO 17003KT 7SM CLR 03/02 A3009 RMK AO2 SLP189 T00330022 58003

More Conditions Fewer Conditions

Pressure 30.09 in
Visibility 7.0 miles
Clouds Clear
Windchill 40 °F
Dew Point 38 °F
Humidity 92%
Rainfall 0.00 in
Snow Depth Not available.
UV 0 out of 12
Pollen .40 out of 12
Air Quality Not available.
Flu Activity Sporadic
METAR KFDY 240853Z AUTO 17003KT 7SM CLR 03/02 A3009 RMK AO2 SLP189 T00330022 58003

More Conditions Fewer Conditions

10-Day Weather Forecast

Almanac

Astronomy

Oct. 24, 2014 Rise Set
Actual Time 7:55 AM EDT 6:41 PM EDT
Civil Twilight 7:27 AM EDT 7:09 PM EDT
Nautical Twilight 6:55 AM EDT 7:41 PM EDT
Astronomical Twilight 6:23 AM EDT 8:12 PM EDT
Moon 8:33 AM EDT 7:20 PM EDT
Length of Visible Light 11h 41m
Length of Day
10h 45m
Tomorrow will be 2m 31s shorter.
New Moon, 0% of the Moon is Illuminated
Today
New Moon
Oct 30
First Quarter
Nov 6
Full
Nov 14
Last Quarter
Nov 22
New

Today's Extremes

State Highs State Lows

Community

WunderPhotos

Upload Photos

1,764,513 photos uploaded!

WunderBlogs® & News

Nearby

Snow Depth

Station Depth Elevation
No new snow has been reported.

Earthquake Activity

City Distance Mag. Time & Date
No recent earthquake activity has been reported nearby.
Minimum magnitude displayed is 2.5.

Coastal Water Temperatures

Place Temperature
No Stations Reporting

Nearby Weather Stations